Time;durP1;ratioP1;P1;durP2;ratioP2;P2;SDS_P1;SDS_P2;PMS_P1;PMS_P2;Temp;Humidity;BMP_temperature;BMP_pressure;BME280_temperature;BME280_humidity;BME280_pressure;Samples;Min_cycle;Max_cycle;Signal;HPM_P1;HPM_P2
2023/07/02 00:02:22;;;;;;;9.57;9.17;;;17.00;99.90;;;;;;5038365;28;20471;-67
2023/07/02 00:04:49;;;;;;;8.10;7.80;;;16.90;99.90;;;;;;5037872;28;20798;-67
2023/07/02 00:07:16;;;;;;;8.47;8.17;;;17.00;99.90;;;;;;5034363;28;20946;-67
2023/07/02 00:09:43;;;;;;;9.23;8.63;;;16.90;99.90;;;;;;5031628;28;21041;-66
2023/07/02 00:12:11;;;;;;;9.93;9.33;;;17.00;99.90;;;;;;5035511;28;20464;-67
2023/07/02 00:14:38;;;;;;;8.23;7.93;;;16.90;99.90;;;;;;5038703;28;20863;-67
2023/07/02 00:17:04;;;;;;;23.30;9.00;;;16.80;99.90;;;;;;5045376;28;21018;-66
2023/07/02 00:19:31;;;;;;;10.93;10.03;;;16.90;99.90;;;;;;5032813;28;20513;-66
2023/07/02 00:21:58;;;;;;;10.33;9.83;;;16.80;99.90;;;;;;5037885;28;20478;-67
2023/07/02 00:24:25;;;;;;;9.27;8.90;;;16.80;99.90;;;;;;5039533;28;20502;-66
2023/07/02 00:26:51;;;;;;;10.30;9.77;;;16.70;99.90;;;;;;5031877;28;20477;-66
2023/07/02 00:29:20;;;;;;;10.40;9.67;;;16.70;99.90;;;;;;5039680;28;20472;-66
2023/07/02 00:31:47;;;;;;;10.13;9.53;;;16.70;99.90;;;;;;5028820;28;20474;-66
2023/07/02 00:34:14;;;;;;;10.03;9.43;;;16.60;99.90;;;;;;5029327;28;20460;-66
2023/07/02 00:36:41;;;;;;;11.30;10.77;;;16.50;99.90;;;;;;5033112;28;20824;-66
2023/07/02 00:39:08;;;;;;;8.70;8.40;;;16.50;99.90;;;;;;5042017;28;20590;-67
2023/07/02 00:41:35;;;;;;;11.80;10.87;;;16.50;99.90;;;;;;5039740;28;20476;-66
2023/07/02 00:44:02;;;;;;;10.23;9.60;;;16.50;99.90;;;;;;5028275;28;20499;-67
2023/07/02 00:46:32;;;;;;;11.60;10.73;;;16.50;99.90;;;;;;5033113;28;20959;-67
2023/07/02 00:49:00;;;;;;;9.97;9.47;;;16.50;99.90;;;;;;5042440;28;20859;-66
2023/07/02 00:51:28;;;;;;;10.10;9.60;;;16.40;99.90;;;;;;5043323;28;20478;-67
2023/07/02 00:53:57;;;;;;;10.37;9.77;;;16.40;99.90;;;;;;5032357;28;20534;-66
2023/07/02 00:56:24;;;;;;;8.90;8.50;;;16.50;99.90;;;;;;5046484;28;20487;-66
2023/07/02 00:58:53;;;;;;;15.63;10.17;;;16.40;99.90;;;;;;5042525;28;20646;-67
2023/07/02 01:01:21;;;;;;;9.50;8.87;;;16.40;99.90;;;;;;5025681;28;20487;-66
2023/07/02 01:03:54;;;;;;;9.73;8.90;;;16.40;99.90;;;;;;5039490;28;20495;-66
2023/07/02 01:06:25;;;;;;;14.53;11.33;;;16.30;99.90;;;;;;5034358;28;20545;-67
2023/07/02 01:08:57;;;;;;;9.00;8.50;;;16.30;99.90;;;;;;5036252;28;20464;-67
2023/07/02 01:11:27;;;;;;;11.10;10.30;;;16.20;99.90;;;;;;5031204;28;20813;-67
2023/07/02 01:13:57;;;;;;;8.00;7.70;;;16.10;99.90;;;;;;5041439;28;20875;-67
2023/07/02 01:16:24;;;;;;;8.90;8.50;;;16.10;99.90;;;;;;5028241;28;20488;-68
2023/07/02 01:18:54;;;;;;;8.27;8.00;;;15.90;99.90;;;;;;5035030;28;20458;-66
2023/07/02 01:21:25;;;;;;;8.03;7.73;;;15.90;99.90;;;;;;5033712;28;20568;-67
2023/07/02 01:23:52;;;;;;;9.43;8.73;;;15.90;99.90;;;;;;5045451;28;20594;-67
2023/07/02 01:26:19;;;;;;;11.03;10.03;;;15.80;99.90;;;;;;5037925;28;20818;-67
2023/07/02 01:28:46;;;;;;;12.00;10.73;;;15.80;99.90;;;;;;5044018;28;20460;-68
2023/07/02 01:31:13;;;;;;;8.70;8.10;;;15.80;99.90;;;;;;5038240;28;20467;-68
2023/07/02 01:33:41;;;;;;;9.30;8.57;;;15.80;99.90;;;;;;5039532;28;20460;-68
2023/07/02 01:36:08;;;;;;;9.90;9.20;;;15.70;99.90;;;;;;5035512;28;20475;-68
2023/07/02 01:38:37;;;;;;;9.17;8.57;;;15.80;99.90;;;;;;5037763;28;20543;-68
2023/07/02 01:41:04;;;;;;;9.97;9.13;;;15.70;99.90;;;;;;5047972;28;20927;-68
2023/07/02 01:43:31;;;;;;;7.90;7.60;;;15.70;99.90;;;;;;5044558;28;20490;-67
2023/07/02 01:45:59;;;;;;;10.73;9.83;;;15.60;99.90;;;;;;5042122;28;20468;-68
2023/07/02 01:48:27;;;;;;;9.60;8.77;;;15.60;99.90;;;;;;5040457;28;20479;-68
2023/07/02 01:50:53;;;;;;;8.60;8.00;;;15.50;99.90;;;;;;5040093;28;20558;-68
2023/07/02 01:53:20;;;;;;;11.63;9.23;;;15.50;99.90;;;;;;5036887;28;20464;-68
2023/07/02 01:55:50;;;;;;;7.67;7.27;;;15.40;99.90;;;;;;5043623;28;20978;-68
2023/07/02 01:58:17;;;;;;;8.00;7.70;;;15.30;99.90;;;;;;5041566;28;20551;-67
2023/07/02 02:00:44;;;;;;;7.40;7.10;;;15.30;99.90;;;;;;5036543;28;20460;-68
2023/07/02 02:03:11;;;;;;;9.20;8.60;;;15.20;99.90;;;;;;5042669;28;20484;-66
2023/07/02 02:05:38;;;;;;;8.17;7.60;;;15.10;99.90;;;;;;5041209;28;20464;-67
2023/07/02 02:08:06;;;;;;;25.07;11.77;;;15.10;99.90;;;;;;5040818;28;20467;-67
2023/07/02 02:10:32;;;;;;;9.37;8.50;;;15.10;99.90;;;;;;5041412;28;20640;-68
2023/07/02 02:13:00;;;;;;;9.90;8.53;;;15.10;99.90;;;;;;5036204;28;20468;-67
2023/07/02 02:15:28;;;;;;;14.03;8.67;;;15.10;99.90;;;;;;5039623;28;20480;-68
2023/07/02 02:17:55;;;;;;;7.33;6.93;;;15.10;99.90;;;;;;5036825;28;21094;-68
2023/07/02 02:20:22;;;;;;;12.10;8.83;;;15.10;99.90;;;;;;5049190;28;20796;-66
2023/07/02 02:22:49;;;;;;;9.00;8.30;;;15.10;99.90;;;;;;5037630;28;20464;-67
2023/07/02 02:25:16;;;;;;;17.77;10.87;;;15.10;99.90;;;;;;5043812;28;20546;-68
2023/07/02 02:27:44;;;;;;;11.77;10.60;;;15.20;99.90;;;;;;5043123;28;20674;-67
2023/07/02 02:30:12;;;;;;;7.20;6.80;;;15.20;99.90;;;;;;5039034;28;20505;-66
2023/07/02 02:32:39;;;;;;;15.73;12.23;;;15.20;99.90;;;;;;5041158;28;20468;-67
2023/07/02 02:35:06;;;;;;;8.10;7.60;;;15.20;99.90;;;;;;5040555;28;20464;-67
2023/07/02 02:37:34;;;;;;;9.30;8.43;;;15.30;99.90;;;;;;5048595;28;20459;-67
2023/07/02 02:40:01;;;;;;;9.30;8.70;;;15.30;99.90;;;;;;5034144;28;20558;-68
2023/07/02 02:42:28;;;;;;;8.33;7.83;;;15.40;99.90;;;;;;5033006;28;20557;-67
2023/07/02 02:44:55;;;;;;;7.53;7.13;;;15.50;99.90;;;;;;5044437;28;20892;-68
2023/07/02 02:47:24;;;;;;;16.43;12.13;;;15.50;99.90;;;;;;5028864;28;20457;-68
2023/07/02 02:49:51;;;;;;;8.57;8.00;;;15.50;99.90;;;;;;5037917;28;20457;-68
2023/07/02 02:52:18;;;;;;;13.70;11.37;;;15.60;99.90;;;;;;5048414;28;20981;-67
2023/07/02 02:54:44;;;;;;;11.23;8.70;;;15.50;99.90;;;;;;5035348;28;20561;-66
2023/07/02 02:57:13;;;;;;;8.30;7.90;;;15.60;99.90;;;;;;5036210;28;20469;-67
2023/07/02 02:59:40;;;;;;;16.00;12.03;;;15.60;99.90;;;;;;5039783;28;20460;-66
2023/07/02 03:02:07;;;;;;;25.10;14.73;;;15.60;99.90;;;;;;5042748;28;20448;-67
2023/07/02 03:04:41;;;;;;;16.00;11.53;;;15.70;99.90;;;;;;5044143;28;21106;-67
2023/07/02 03:07:07;;;;;;;11.67;10.57;;;15.70;99.90;;;;;;5038230;28;20456;-67
2023/07/02 03:09:34;;;;;;;10.27;9.30;;;15.80;99.90;;;;;;5045541;28;20455;-67
2023/07/02 03:12:01;;;;;;;14.07;12.63;;;15.80;99.90;;;;;;5048399;28;20814;-66
2023/07/02 03:14:28;;;;;;;14.60;9.40;;;15.80;99.90;;;;;;5035066;28;20511;-68
2023/07/02 03:16:56;;;;;;;10.30;9.50;;;15.80;99.90;;;;;;5042959;28;20460;-68
2023/07/02 03:19:23;;;;;;;9.87;9.07;;;15.80;99.90;;;;;;5038049;28;20482;-67
2023/07/02 03:21:51;;;;;;;15.10;10.30;;;15.80;99.90;;;;;;5045458;28;20463;-67
2023/07/02 03:24:18;;;;;;;19.43;13.60;;;15.70;99.90;;;;;;5047658;28;20487;-67
2023/07/02 03:26:45;;;;;;;8.80;8.30;;;15.80;99.90;;;;;;5040004;28;20460;-66
2023/07/02 03:29:12;;;;;;;12.20;10.33;;;15.80;99.90;;;;;;5043311;28;20463;-67
2023/07/02 03:31:39;;;;;;;6.93;6.63;;;15.80;99.90;;;;;;5036512;28;20864;-68
2023/07/02 03:34:09;;;;;;;11.30;10.07;;;15.80;99.90;;;;;;5040703;28;20953;-67
2023/07/02 03:36:36;;;;;;;8.50;7.87;;;15.80;99.90;;;;;;5045267;28;21023;-67
2023/07/02 03:39:04;;;;;;;11.67;10.57;;;15.80;99.90;;;;;;5037149;28;20512;-67
2023/07/02 03:41:31;;;;;;;12.33;9.60;;;15.80;99.90;;;;;;5045103;28;20475;-68
2023/07/02 03:43:59;;;;;;;8.83;7.17;;;15.70;99.90;;;;;;5042788;28;20486;-67
2023/07/02 03:46:26;;;;;;;11.13;10.17;;;15.70;99.90;;;;;;5032233;28;20777;-67
2023/07/02 03:48:53;;;;;;;10.03;9.03;;;15.70;99.90;;;;;;5036506;28;20476;-66
2023/07/02 03:51:19;;;;;;;7.10;6.60;;;15.80;99.90;;;;;;5047423;28;20463;-67
2023/07/02 03:53:46;;;;;;;9.47;8.57;;;15.80;99.90;;;;;;5037796;28;20471;-68
2023/07/02 03:56:14;;;;;;;7.63;7.13;;;15.80;99.90;;;;;;5037473;28;20796;-67
2023/07/02 03:58:42;;;;;;;8.30;7.73;;;15.80;99.90;;;;;;5038731;28;20503;-68
2023/07/02 04:01:09;;;;;;;9.13;8.73;;;15.90;99.90;;;;;;5036946;28;20474;-68
2023/07/02 04:03:36;;;;;;;8.83;8.23;;;15.90;99.90;;;;;;5046954;28;20520;-67
2023/07/02 04:06:05;;;;;;;10.83;8.23;;;15.90;99.90;;;;;;5035570;28;20460;-68
2023/07/02 04:08:32;;;;;;;14.50;7.63;;;15.80;99.90;;;;;;5043603;28;20459;-68
2023/07/02 04:10:59;;;;;;;20.37;13.40;;;15.80;99.90;;;;;;5038607;28;20561;-67
2023/07/02 04:13:28;;;;;;;15.73;10.43;;;15.90;99.90;;;;;;5045940;28;20518;-68
2023/07/02 04:15:55;;;;;;;8.97;8.37;;;15.90;99.90;;;;;;5040142;28;20488;-68
2023/07/02 04:18:22;;;;;;;8.80;8.03;;;15.90;99.90;;;;;;5043720;28;20821;-67
2023/07/02 04:20:48;;;;;;;6.77;6.50;;;15.90;99.90;;;;;;5041562;28;20981;-67
2023/07/02 04:23:16;;;;;;;10.47;9.27;;;15.90;99.90;;;;;;5041617;28;20460;-68
2023/07/02 04:25:43;;;;;;;12.70;8.87;;;15.90;99.90;;;;;;5038863;28;20503;-69
2023/07/02 04:28:10;;;;;;;19.10;10.93;;;15.90;99.90;;;;;;5035992;28;20471;-68
2023/07/02 04:30:38;;;;;;;11.63;10.43;;;16.00;99.90;;;;;;5035464;28;20457;-67
2023/07/02 04:33:05;;;;;;;8.97;8.40;;;16.00;99.90;;;;;;5037149;28;20972;-67
2023/07/02 04:35:32;;;;;;;9.10;8.50;;;16.10;99.90;;;;;;5035517;28;20551;-68
2023/07/02 04:37:59;;;;;;;8.83;8.27;;;16.10;99.90;;;;;;5045194;28;20487;-68
2023/07/02 04:40:26;;;;;;;9.90;8.73;;;16.20;99.90;;;;;;5032504;28;20456;-68
2023/07/02 04:42:57;;;;;;;13.00;10.90;;;16.10;99.90;;;;;;5044111;28;20580;-68
2023/07/02 04:45:25;;;;;;;12.53;11.40;;;16.10;99.90;;;;;;5037240;28;21045;-67
2023/07/02 04:47:53;;;;;;;9.33;8.53;;;16.10;99.90;;;;;;5045148;28;20475;-69
2023/07/02 04:50:20;;;;;;;19.93;14.90;;;16.20;99.90;;;;;;5041319;28;20522;-69
2023/07/02 04:52:47;;;;;;;10.80;9.87;;;16.10;99.90;;;;;;5029320;28;20456;-69
2023/07/02 04:55:14;;;;;;;6.97;6.73;;;16.20;99.90;;;;;;5033586;28;20473;-67
2023/07/02 04:57:41;;;;;;;24.87;13.47;;;16.30;99.90;;;;;;5046940;28;20486;-68
2023/07/02 05:00:09;;;;;;;12.37;8.33;;;16.40;99.90;;;;;;5038498;28;20522;-67
2023/07/02 05:02:35;;;;;;;19.07;15.10;;;16.50;99.90;;;;;;5030770;28;20958;-69
2023/07/02 05:05:04;;;;;;;12.87;11.70;;;16.60;99.90;;;;;;5037908;28;20492;-69
2023/07/02 05:07:31;;;;;;;13.20;9.50;;;16.60;99.90;;;;;;5043443;28;20459;-67
2023/07/02 05:09:59;;;;;;;16.33;12.10;;;16.50;99.90;;;;;;5031538;28;20939;-66
2023/07/02 05:12:25;;;;;;;21.93;14.10;;;16.50;99.90;;;;;;5030265;28;20568;-67
2023/07/02 05:14:52;;;;;;;14.33;12.83;;;16.60;99.90;;;;;;5045996;28;20491;-65
2023/07/02 05:17:19;;;;;;;10.73;9.97;;;16.70;99.90;;;;;;5045066;28;20468;-67
2023/07/02 05:19:46;;;;;;;16.20;13.13;;;16.80;99.90;;;;;;5041294;28;20463;-68
2023/07/02 05:22:14;;;;;;;11.83;10.73;;;16.90;99.90;;;;;;5035986;28;20460;-67
2023/07/02 05:24:42;;;;;;;13.63;12.30;;;16.90;99.90;;;;;;5046257;28;20491;-68
2023/07/02 05:27:08;;;;;;;29.23;17.97;;;16.90;99.90;;;;;;5045170;28;20776;-66
2023/07/02 05:29:35;;;;;;;11.30;10.60;;;16.90;99.90;;;;;;5043123;28;21076;-67
2023/07/02 05:32:02;;;;;;;11.40;10.53;;;16.90;99.90;;;;;;5045265;28;20466;-67
2023/07/02 05:34:29;;;;;;;12.03;11.03;;;16.90;99.90;;;;;;5042560;28;20970;-68
2023/07/02 05:36:56;;;;;;;11.53;10.73;;;17.00;99.90;;;;;;5041304;28;21122;-67
2023/07/02 05:39:24;;;;;;;18.20;14.70;;;17.10;99.90;;;;;;5039641;28;20463;-67
2023/07/02 05:41:51;;;;;;;17.13;15.57;;;17.30;99.90;;;;;;5041748;28;20524;-66
2023/07/02 05:44:19;;;;;;;33.27;16.90;;;17.20;99.90;;;;;;5044793;28;20988;-68
2023/07/02 05:46:46;;;;;;;13.00;12.20;;;17.30;99.90;;;;;;5035305;28;20464;-67
2023/07/02 05:49:13;;;;;;;25.20;15.07;;;17.30;99.90;;;;;;5033766;28;20488;-65
2023/07/02 05:51:40;;;;;;;23.70;16.27;;;17.20;99.90;;;;;;5048333;28;20923;-67
2023/07/02 05:54:07;;;;;;;25.63;18.30;;;17.30;99.90;;;;;;5043119;28;20472;-67
2023/07/02 05:56:35;;;;;;;29.57;19.43;;;17.40;99.90;;;;;;5038989;28;20466;-67
2023/07/02 05:59:03;;;;;;;11.20;10.40;;;17.50;99.90;;;;;;5046423;28;20466;-65
2023/07/02 06:01:30;;;;;;;12.50;11.70;;;17.60;99.90;;;;;;5037404;28;20490;-68
2023/07/02 06:03:57;;;;;;;12.83;11.70;;;17.70;99.90;;;;;;5041191;28;20899;-68
2023/07/02 06:06:24;;;;;;;27.10;17.50;;;17.60;99.90;;;;;;5042796;28;20492;-67
2023/07/02 06:08:51;;;;;;;12.20;11.50;;;17.50;99.90;;;;;;5036375;28;20899;-67
2023/07/02 06:11:18;;;;;;;19.23;15.50;;;17.80;99.90;;;;;;5031574;28;20460;-66
2023/07/02 06:13:46;;;;;;;11.57;10.27;;;17.90;99.90;;;;;;5035658;28;20946;-67
2023/07/02 06:16:13;;;;;;;14.00;13.00;;;18.00;99.90;;;;;;5034837;28;20564;-66
2023/07/02 06:18:41;;;;;;;13.87;12.80;;;18.10;99.90;;;;;;5036445;28;20473;-66
2023/07/02 06:21:07;;;;;;;18.97;17.07;;;18.10;99.90;;;;;;5034033;28;20510;-67
2023/07/02 06:23:41;;;;;;;14.90;13.83;;;18.10;99.90;;;;;;5041683;28;20456;-67
2023/07/02 06:26:08;;;;;;;13.60;12.60;;;18.10;99.90;;;;;;5036388;28;20490;-65
2023/07/02 06:28:35;;;;;;;15.60;14.40;;;18.30;99.90;;;;;;5036553;28;20496;-66
2023/07/02 06:31:04;;;;;;;14.57;13.60;;;18.40;99.90;;;;;;5040097;28;20984;-66
2023/07/02 06:33:31;;;;;;;13.60;13.00;;;18.40;99.90;;;;;;5044618;28;20856;-65
2023/07/02 06:35:58;;;;;;;15.83;14.80;;;18.60;99.90;;;;;;5040424;28;20558;-65
2023/07/02 06:38:24;;;;;;;14.57;13.30;;;18.80;99.90;;;;;;5041222;28;20852;-67
2023/07/02 06:40:52;;;;;;;16.03;14.37;;;18.80;99.90;;;;;;5037831;28;20945;-65
2023/07/02 06:43:19;;;;;;;15.90;14.37;;;18.90;99.90;;;;;;5034031;28;20602;-65
2023/07/02 06:45:45;;;;;;;12.70;12.10;;;19.10;99.90;;;;;;5033433;28;20603;-67
2023/07/02 06:48:17;;;;;;;17.33;15.60;;;19.30;99.90;;;;;;5039056;28;20530;-67
2023/07/02 06:50:45;;;;;;;20.73;18.60;;;19.40;99.90;;;;;;5047636;28;20460;-66
2023/07/02 06:53:12;;;;;;;18.63;16.87;;;19.30;99.90;;;;;;5033540;28;20456;-65
2023/07/02 06:55:39;;;;;;;23.93;18.20;;;19.10;99.90;;;;;;5036000;28;20955;-65
2023/07/02 06:58:06;;;;;;;20.03;17.87;;;19.00;99.90;;;;;;5034987;28;20460;-66
2023/07/02 07:00:35;;;;;;;18.13;15.20;;;18.90;99.90;;;;;;5037977;28;20555;-68
2023/07/02 07:03:02;;;;;;;23.13;19.17;;;18.80;99.90;;;;;;5032612;28;20558;-65
2023/07/02 07:05:31;;;;;;;19.90;14.73;;;19.00;99.90;;;;;;5038826;28;20489;-65
2023/07/02 07:07:58;;;;;;;14.50;13.10;;;19.10;99.90;;;;;;5039376;28;20575;-65
2023/07/02 07:10:26;;;;;;;26.20;18.13;;;19.00;99.90;;;;;;5036102;28;20471;-67
2023/07/02 07:12:53;;;;;;;14.70;13.40;;;19.10;99.90;;;;;;5032530;28;20471;-66
2023/07/02 07:15:20;;;;;;;16.43;13.03;;;19.20;99.90;;;;;;5036368;28;20481;-67
2023/07/02 07:17:48;;;;;;;24.73;14.50;;;19.50;99.90;;;;;;5041834;28;20518;-66
2023/07/02 07:20:15;;;;;;;13.87;12.33;;;19.60;99.90;;;;;;5039564;28;20463;-66
2023/07/02 07:22:44;;;;;;;16.43;15.03;;;19.80;99.90;;;;;;5040674;28;20831;-65
2023/07/02 07:25:11;;;;;;;16.43;12.87;;;19.70;99.90;;;;;;5039706;28;20483;-66
2023/07/02 07:27:38;;;;;;;11.70;10.63;;;19.80;99.90;;;;;;5040732;28;20470;-66
2023/07/02 07:30:06;;;;;;;14.30;13.30;;;19.90;99.90;;;;;;5031146;28;20476;-66
2023/07/02 07:32:33;;;;;;;13.93;12.63;;;20.20;99.90;;;;;;5037355;28;20487;-66
2023/07/02 07:35:01;;;;;;;15.87;14.03;;;20.20;99.90;;;;;;5034194;28;20503;-66
2023/07/02 07:37:28;;;;;;;14.73;13.93;;;20.00;99.90;;;;;;5034477;28;20543;-66
2023/07/02 07:39:56;;;;;;;12.10;11.50;;;20.00;99.90;;;;;;5036205;28;20465;-67
2023/07/02 07:42:23;;;;;;;15.70;14.17;;;20.10;99.90;;;;;;5039975;28;20845;-66
2023/07/02 07:44:50;;;;;;;15.83;14.23;;;20.10;99.90;;;;;;5041339;28;20811;-69
2023/07/02 07:47:17;;;;;;;16.37;14.87;;;20.30;99.90;;;;;;5033396;28;20459;-67
2023/07/02 07:49:44;;;;;;;12.27;11.77;;;20.50;99.90;;;;;;5047587;28;20463;-66
2023/07/02 07:52:11;;;;;;;14.50;13.30;;;20.60;99.90;;;;;;5029222;28;20525;-67
2023/07/02 07:54:38;;;;;;;38.93;16.30;;;20.70;99.90;;;;;;5034203;28;20473;-67
2023/07/02 07:57:07;;;;;;;14.60;13.70;;;21.00;99.90;;;;;;5032423;28;20492;-67
2023/07/02 07:59:34;;;;;;;14.20;13.10;;;20.80;99.90;;;;;;5030708;28;20455;-68
2023/07/02 08:02:01;;;;;;;12.53;11.97;;;20.80;99.90;;;;;;5037915;28;20460;-67
2023/07/02 08:04:28;;;;;;;16.97;15.80;;;20.90;99.90;;;;;;5032359;28;20827;-67
2023/07/02 08:06:56;;;;;;;12.60;12.00;;;21.00;99.90;;;;;;5041403;28;20499;-67
2023/07/02 08:09:24;;;;;;;21.70;18.20;;;21.00;99.90;;;;;;5041847;28;20463;-66
2023/07/02 08:11:51;;;;;;;17.73;16.07;;;21.00;99.90;;;;;;5040991;28;20534;-67
2023/07/02 08:14:19;;;;;;;20.40;18.50;;;21.00;99.90;;;;;;5032741;28;20548;-68
2023/07/02 08:16:47;;;;;;;19.20;14.77;;;20.60;99.90;;;;;;5036904;28;20488;-66
2023/07/02 08:19:13;;;;;;;13.93;13.03;;;20.70;99.90;;;;;;5042331;28;20521;-67
2023/07/02 08:21:40;;;;;;;12.03;11.33;;;20.80;99.90;;;;;;5035948;28;20475;-67
2023/07/02 08:24:07;;;;;;;12.63;11.90;;;21.10;99.90;;;;;;5032358;28;20499;-67
2023/07/02 08:26:34;;;;;;;16.13;14.80;;;21.30;99.90;;;;;;5039093;28;20491;-67
2023/07/02 08:29:01;;;;;;;16.57;15.33;;;21.70;99.90;;;;;;5034422;28;20469;-67
2023/07/02 08:31:30;;;;;;;14.43;13.43;;;21.70;99.90;;;;;;5035061;28;20842;-68
2023/07/02 08:33:57;;;;;;;16.87;15.33;;;21.10;99.90;;;;;;5043569;28;20471;-67
2023/07/02 08:36:24;;;;;;;17.43;14.30;;;20.80;99.90;;;;;;5028796;28;20461;-67
2023/07/02 08:38:51;;;;;;;37.80;15.77;;;20.60;99.90;;;;;;5039044;28;20807;-67
2023/07/02 08:41:18;;;;;;;18.47;16.93;;;20.30;99.90;;;;;;5045800;28;20460;-67
2023/07/02 08:43:45;;;;;;;16.53;15.17;;;20.10;99.90;;;;;;5038974;28;20805;-66
2023/07/02 08:46:12;;;;;;;14.63;13.70;;;19.90;99.90;;;;;;5037298;28;20495;-67
2023/07/02 08:48:41;;;;;;;12.47;11.87;;;19.60;99.90;;;;;;5048780;28;20471;-67
2023/07/02 08:51:08;;;;;;;13.23;12.50;;;19.60;99.90;;;;;;5049292;28;20470;-66
2023/07/02 08:53:35;;;;;;;17.47;15.90;;;19.70;99.90;;;;;;5046676;28;20460;-67
2023/07/02 08:56:04;;;;;;;16.90;15.20;;;20.00;99.90;;;;;;5041747;28;20471;-67
2023/07/02 08:58:32;;;;;;;16.50;14.77;;;20.30;99.90;;;;;;5039236;28;20511;-67
2023/07/02 09:01:09;;;;;;;11.57;11.00;;;20.50;99.90;;;;;;5041811;28;21240;-67
2023/07/02 09:03:37;;;;;;;17.60;16.20;;;21.20;99.90;;;;;;5043767;28;20811;-67
2023/07/02 09:06:06;;;;;;;17.53;16.30;;;21.30;99.90;;;;;;5044991;28;21316;-67
2023/07/02 09:08:34;;;;;;;17.53;16.00;;;20.90;99.90;;;;;;5045662;28;20464;-68
2023/07/02 09:11:08;;;;;;;16.07;13.97;;;20.70;99.90;;;;;;5043200;28;20537;-67
2023/07/02 09:13:48;;;;;;;22.23;16.50;;;20.50;99.90;;;;;;5047025;28;20476;-67
2023/07/02 09:16:23;;;;;;;13.73;12.70;;;20.10;99.90;;;;;;5041756;28;20882;-67
2023/07/02 09:19:02;;;;;;;14.67;13.67;;;19.70;99.90;;;;;;5044162;28;20996;-67
2023/07/02 09:21:40;;;;;;;14.93;13.80;;;19.70;99.90;;;;;;5042438;28;20469;-68
2023/07/02 09:24:18;;;;;;;14.03;13.10;;;19.60;99.90;;;;;;5048795;28;20757;-67
2023/07/02 09:26:47;;;;;;;10.10;9.70;;;19.70;99.90;;;;;;5041158;28;20858;-67
2023/07/02 09:29:18;;;;;;;15.80;14.40;;;20.00;99.90;;;;;;5046767;28;20502;-66
2023/07/02 09:31:46;;;;;;;18.57;16.87;;;20.90;99.90;;;;;;5042244;28;20467;-68
2023/07/02 09:34:13;;;;;;;18.23;16.83;;;21.20;99.90;;;;;;5043236;28;20600;-68
2023/07/02 09:36:41;;;;;;;13.77;12.97;;;21.20;99.90;;;;;;5042496;28;20558;-68
2023/07/02 09:39:09;;;;;;;19.33;16.00;;;21.20;99.90;;;;;;5046358;28;20487;-67
2023/07/02 09:41:37;;;;;;;15.90;14.60;;;21.60;99.90;;;;;;5045297;28;20468;-67
2023/07/02 09:44:04;;;;;;;18.03;16.53;;;21.70;99.90;;;;;;5045091;28;20460;-68
2023/07/02 09:46:32;;;;;;;17.90;16.40;;;21.80;99.90;;;;;;5048938;28;20909;-68
2023/07/02 09:49:00;;;;;;;24.67;18.53;;;21.50;99.90;;;;;;5041722;28;20490;-67
2023/07/02 09:51:27;;;;;;;19.80;17.93;;;21.50;99.90;;;;;;5046929;28;20455;-67
2023/07/02 09:53:56;;;;;;;19.77;16.30;;;21.40;99.90;;;;;;5049170;28;20467;-67
2023/07/02 09:56:23;;;;;;;16.13;14.93;;;21.20;99.90;;;;;;5039934;28;20556;-67
2023/07/02 09:58:50;;;;;;;28.17;18.97;;;20.90;99.90;;;;;;5039131;28;20510;-67
2023/07/02 10:01:16;;;;;;;16.03;14.73;;;20.80;99.90;;;;;;5039256;28;20958;-67
2023/07/02 10:03:43;;;;;;;20.70;18.73;;;20.80;99.90;;;;;;5037555;28;20819;-67
2023/07/02 10:06:10;;;;;;;13.63;12.80;;;21.00;99.90;;;;;;5044636;28;20480;-67
2023/07/02 10:08:37;;;;;;;14.17;12.93;;;20.90;99.90;;;;;;5038525;28;20825;-67
2023/07/02 10:11:14;;;;;;;17.93;16.40;;;20.90;99.90;;;;;;5038922;28;20457;-67
2023/07/02 10:13:42;;;;;;;18.70;16.90;;;20.60;99.90;;;;;;5046414;28;20796;-67
2023/07/02 10:16:08;;;;;;;15.60;14.43;;;20.30;99.90;;;;;;5033371;28;21025;-67
2023/07/02 10:18:36;;;;;;;13.57;12.80;;;19.80;99.90;;;;;;5047035;28;20455;-68
2023/07/02 10:21:15;;;;;;;14.07;13.27;;;19.60;99.90;;;;;;5036349;28;20525;-67
2023/07/02 10:23:43;;;;;;;15.30;14.40;;;19.90;99.90;;;;;;5033166;28;20555;-68
2023/07/02 10:26:17;;;;;;;14.07;13.23;;;20.30;99.90;;;;;;5038271;28;20820;-66
2023/07/02 10:28:44;;;;;;;14.47;13.77;;;20.50;99.90;;;;;;5040879;28;21173;-66
2023/07/02 10:31:21;;;;;;;13.60;12.50;;;21.20;99.90;;;;;;5042479;28;20456;-67
2023/07/02 10:33:49;;;;;;;17.27;15.97;;;21.10;99.90;;;;;;5039640;28;20466;-68
2023/07/02 10:36:21;;;;;;;16.67;15.47;;;20.80;99.90;;;;;;5035501;28;20495;-67
2023/07/02 10:38:48;;;;;;;14.93;13.90;;;21.00;99.90;;;;;;5039064;28;20487;-66
2023/07/02 10:41:27;;;;;;;23.37;17.67;;;21.40;99.90;;;;;;5039233;28;20731;-66
2023/07/02 10:43:54;;;;;;;34.93;17.10;;;20.90;99.90;;;;;;5041491;28;20462;-67
2023/07/02 10:46:21;;;;;;;15.33;14.43;;;20.50;99.90;;;;;;5040879;28;20491;-66
2023/07/02 10:48:55;;;;;;;14.50;13.80;;;20.00;99.90;;;;;;5042061;28;20583;-66
2023/07/02 10:51:23;;;;;;;14.80;14.07;;;19.90;99.90;;;;;;5042118;28;20475;-66
2023/07/02 10:54:00;;;;;;;14.60;14.00;;;19.80;99.90;;;;;;5045227;28;20471;-69
2023/07/02 10:56:29;;;;;;;16.23;15.30;;;19.70;99.90;;;;;;5043881;28;20541;-66
2023/07/02 10:58:56;;;;;;;16.33;14.80;;;19.60;99.90;;;;;;5040297;28;20465;-66
2023/07/02 11:01:24;;;;;;;18.43;16.97;;;19.80;99.90;;;;;;5039541;28;20475;-66
2023/07/02 11:03:57;;;;;;;14.00;13.30;;;20.30;99.90;;;;;;5041570;28;21177;-67
2023/07/02 11:06:24;;;;;;;20.60;18.43;;;20.70;99.90;;;;;;5038739;28;22041;-65
2023/07/02 11:08:52;;;;;;;13.93;13.20;;;22.00;99.90;;;;;;5037014;28;20464;-67
2023/07/02 11:11:19;;;;;;;15.23;14.30;;;22.80;99.90;;;;;;5035264;28;20531;-67
2023/07/02 11:13:49;;;;;;;15.03;14.13;;;23.80;99.90;;;;;;5033541;28;20958;-67
2023/07/02 11:16:24;;;;;;;14.40;13.50;;;24.50;99.90;;;;;;5036224;28;20575;-67
2023/07/02 11:18:51;;;;;;;15.27;14.43;;;25.30;99.90;;;;;;5033998;28;20460;-66
2023/07/02 11:21:18;;;;;;;14.80;14.10;;;25.70;99.90;;;;;;5032593;28;20463;-67
2023/07/02 11:23:45;;;;;;;15.63;14.80;;;25.80;99.90;;;;;;5039861;28;20547;-67
2023/07/02 11:26:13;;;;;;;19.27;17.83;;;25.10;99.90;;;;;;5037855;28;20484;-68
2023/07/02 11:28:51;;;;;;;17.03;15.93;;;24.30;98.40;;;;;;5032286;28;20467;-67
2023/07/02 11:31:27;;;;;;;17.10;15.30;;;23.30;99.70;;;;;;5035387;28;20487;-66
2023/07/02 11:33:55;;;;;;;15.13;14.43;;;22.70;99.90;;;;;;5033697;28;20462;-67
2023/07/02 11:36:24;;;;;;;15.80;14.90;;;22.60;99.90;;;;;;5043832;28;21028;-66
2023/07/02 11:38:52;;;;;;;22.03;15.33;;;23.20;99.90;;;;;;5038558;28;20902;-66
2023/07/02 11:41:19;;;;;;;19.47;18.07;;;23.70;98.90;;;;;;5047121;28;20483;-67
2023/07/02 11:43:47;;;;;;;16.37;15.27;;;24.50;98.60;;;;;;5033773;28;20464;-65
2023/07/02 11:46:15;;;;;;;17.67;16.27;;;25.40;98.70;;;;;;5035444;28;20840;-66
2023/07/02 11:48:42;;;;;;;14.03;13.43;;;26.20;97.20;;;;;;5040500;28;20567;-65
2023/07/02 11:51:09;;;;;;;16.97;15.33;;;26.50;96.40;;;;;;5039894;28;20788;-65
2023/07/02 11:53:36;;;;;;;17.20;15.70;;;25.60;95.00;;;;;;5042888;28;20853;-65
2023/07/02 11:56:03;;;;;;;16.03;14.97;;;25.40;95.40;;;;;;5042943;28;20793;-65
2023/07/02 11:58:30;;;;;;;16.27;15.00;;;25.20;96.00;;;;;;5040650;28;20821;-66
2023/07/02 12:00:57;;;;;;;16.63;15.30;;;25.60;94.80;;;;;;5036732;28;20986;-67
2023/07/02 12:03:26;;;;;;;16.03;14.87;;;25.60;94.40;;;;;;5042149;28;20482;-67
2023/07/02 12:05:53;;;;;;;15.30;14.53;;;25.90;93.50;;;;;;5042084;28;21028;-67
2023/07/02 12:08:20;;;;;;;17.10;15.87;;;26.40;93.90;;;;;;5042244;28;21274;-66
2023/07/02 12:10:47;;;;;;;16.83;15.93;;;26.50;92.50;;;;;;5043826;28;20829;-66
2023/07/02 12:13:14;;;;;;;16.97;15.93;;;26.80;93.20;;;;;;5040486;28;21022;-66
2023/07/02 12:15:41;;;;;;;15.40;14.40;;;26.60;93.40;;;;;;5031861;28;20485;-67
2023/07/02 12:18:09;;;;;;;16.07;15.17;;;27.10;92.70;;;;;;5034603;28;20464;-68
2023/07/02 12:20:38;;;;;;;15.07;14.37;;;27.00;92.00;;;;;;5032641;28;20517;-66
2023/07/02 12:23:05;;;;;;;16.23;14.93;;;27.50;91.00;;;;;;5030165;28;20467;-67
2023/07/02 12:25:32;;;;;;;15.33;14.63;;;26.60;91.60;;;;;;5039878;28;20827;-67
2023/07/02 12:27:58;;;;;;;16.07;15.27;;;25.80;91.40;;;;;;5038580;28;20499;-65
2023/07/02 12:30:25;;;;;;;15.87;14.97;;;25.10;93.40;;;;;;5037582;28;20700;-67
2023/07/02 12:32:53;;;;;;;16.17;15.37;;;24.20;95.10;;;;;;5038296;28;20456;-65
2023/07/02 12:35:19;;;;;;;16.20;15.20;;;23.70;94.20;;;;;;5039510;28;21215;-67